Pagrindinis puslapis
METAR-TAF:

METAR-TAF

Oro uostai :

Atėnai, Graikija

platuma: 37-56N, ilguma: 023-56E, Aukštis: 94 m

Dabartinis oras

Ataskaita buvo paskelbta 39 minutes, ne 22:20 UTC
Vėjas 2 kt iš Pietų/Pietvakarių
Temperatūra 16°C
Drėgmė 72%
Slėgis 1016 hPa
Matomumas 10 km arba daugiau
Mažai debesys ne aukštis 2000 ft
Išsisklaidę debesys ne aukštis 3500 ft

METAR: LGAV 302220Z 20002KT 9999 FEW020 SCT035 16/11 Q1016 NOSIG

Laikas: 01:59 (22:59 UTC)

Prognozė

Ataskaita buvo paskelbta 5 valandos ir 59 minutes, ne 17:00 UTC
Prognozė galioja nuo 30 metu 18 UTC su 31 metu 18 UTC
Vėjas 5 kt nuo kintamojo kryptimis
Matomumas 10 km arba daugiau
Mažai debesys ne aukštis 2000 ft
Tapsmas
nuo 31 metu 08 UTC su 31 metu 10 UTC
Vėjas 10 kt iš Rytų/Pietryčių
Tapsmas
nuo 31 metu 10 UTC su 31 metu 12 UTC
Vėjas 12 kt iš Pietų
Tapsmas
nuo 31 metu 09 UTC su 31 metu 11 UTC
Išsisklaidę debesys ne aukštis 2000 ft
Su prošvaistėmis ne aukštis 7000 ft

TAF: LGAV 301700Z 3018/3118 VRB05KT 9999 FEW020 BECMG 3108/3110 12010KT BECMG 3110/3112 18012KT BECMG 3109/3111 SCT020 BKN070

Orai ataskaitas ir orų prognozės (METAR, TAF).

turimą stotys yra geltonos ir raudonos taškus žemėlapyje.

Perkelti pele per norėdami pamatyti stoties vardą.

Tada spustelėkite, norėdami matyti oro stebėjimo ir prognozės.

Norėdami pakeisti žemėlapį: spustelėkite ant žalios mygtukų su juodo kryžiaus žemyn,; žalią mygtuką su brūkšneliu, jei norite nutolinti; arba žalių rodyklių gretimoms žemėlapius.


METAR-TAF: